Bessie, Oklahoma
Current Conditions -  °F | °C
As of 4:35 AM on Thursday 27 Nov 2014 (Local Time) from KCLK Reporting Station
Clear Clear  
Wind Chill: -3°   Ceiling: Unl
Heat Index: -3°   Visibility: 10mi
Dew Point: -6°   Wind: 0mph
Humidity: 80%   Direction: NA
Pressure: 30.48"   Gusts: NA
Location:  35.39°N, 98.99°W
Report Text: KCLK 271035Z AUTO 00000KT 10SM CLR M03/M06 A3048 RMK AO2
Loading
Personal Weather Stations






























Interactive Weather Map New forecast layout! Learn more

10-Day Weather Forecast

Advertisements
Track Severe Weather on mobile